sensor_id;sensor_type;location;lat;lon;timestamp;P1;durP1;ratioP1;P2;durP2;ratioP2
37425;SDS011;23285;50.180;7.036;2023-06-24T00:00:03;5.97;;;5.47;;
37425;SDS011;23285;50.180;7.036;2023-06-24T00:02:52;7.80;;;5.87;;
37425;SDS011;23285;50.180;7.036;2023-06-24T00:05:38;5.83;;;5.33;;
37425;SDS011;23285;50.180;7.036;2023-06-24T00:08:26;5.70;;;5.20;;
37425;SDS011;23285;50.180;7.036;2023-06-24T00:11:18;6.97;;;5.37;;
37425;SDS011;23285;50.180;7.036;2023-06-24T00:14:04;6.63;;;5.30;;
37425;SDS011;23285;50.180;7.036;2023-06-24T00:16:50;5.87;;;5.30;;
37425;SDS011;23285;50.180;7.036;2023-06-24T00:19:37;6.73;;;5.60;;
37425;SDS011;23285;50.180;7.036;2023-06-24T00:22:23;5.23;;;4.77;;
37425;SDS011;23285;50.180;7.036;2023-06-24T00:25:11;5.33;;;4.77;;
37425;SDS011;23285;50.180;7.036;2023-06-24T00:27:57;5.77;;;5.27;;
37425;SDS011;23285;50.180;7.036;2023-06-24T00:30:44;6.10;;;5.50;;
37425;SDS011;23285;50.180;7.036;2023-06-24T00:33:31;5.70;;;5.20;;
37425;SDS011;23285;50.180;7.036;2023-06-24T00:36:20;5.57;;;5.07;;
37425;SDS011;23285;50.180;7.036;2023-06-24T00:39:07;5.40;;;4.90;;
37425;SDS011;23285;50.180;7.036;2023-06-24T00:41:55;6.47;;;5.87;;
37425;SDS011;23285;50.180;7.036;2023-06-24T00:44:42;6.87;;;5.57;;
37425;SDS011;23285;50.180;7.036;2023-06-24T00:47:28;6.17;;;5.57;;
37425;SDS011;23285;50.180;7.036;2023-06-24T00:50:15;6.97;;;5.90;;
37425;SDS011;23285;50.180;7.036;2023-06-24T00:53:02;5.43;;;4.93;;
37425;SDS011;23285;50.180;7.036;2023-06-24T00:55:48;6.03;;;5.43;;
37425;SDS011;23285;50.180;7.036;2023-06-24T00:58:36;6.40;;;5.43;;
37425;SDS011;23285;50.180;7.036;2023-06-24T01:01:23;6.00;;;5.40;;
37425;SDS011;23285;50.180;7.036;2023-06-24T01:04:10;5.97;;;5.47;;
37425;SDS011;23285;50.180;7.036;2023-06-24T01:06:57;6.00;;;5.50;;
37425;SDS011;23285;50.180;7.036;2023-06-24T01:09:44;6.37;;;5.77;;
37425;SDS011;23285;50.180;7.036;2023-06-24T01:12:30;6.13;;;5.60;;
37425;SDS011;23285;50.180;7.036;2023-06-24T01:15:20;6.30;;;5.70;;
37425;SDS011;23285;50.180;7.036;2023-06-24T01:18:07;7.17;;;6.13;;
37425;SDS011;23285;50.180;7.036;2023-06-24T01:20:58;6.33;;;5.73;;
37425;SDS011;23285;50.180;7.036;2023-06-24T01:27:17;5.83;;;5.30;;
37425;SDS011;23285;50.180;7.036;2023-06-24T01:30:26;5.57;;;5.07;;
37425;SDS011;23285;50.180;7.036;2023-06-24T01:33:36;6.20;;;5.60;;
37425;SDS011;23285;50.180;7.036;2023-06-24T01:36:25;5.83;;;5.33;;
37425;SDS011;23285;50.180;7.036;2023-06-24T01:39:14;6.50;;;5.90;;
37425;SDS011;23285;50.180;7.036;2023-06-24T01:42:05;5.87;;;5.37;;
37425;SDS011;23285;50.180;7.036;2023-06-24T01:44:53;6.00;;;5.40;;
37425;SDS011;23285;50.180;7.036;2023-06-24T01:47:40;6.77;;;5.30;;
37425;SDS011;23285;50.180;7.036;2023-06-24T01:50:33;6.20;;;5.60;;
37425;SDS011;23285;50.180;7.036;2023-06-24T01:53:19;5.33;;;4.80;;
37425;SDS011;23285;50.180;7.036;2023-06-24T01:56:08;5.57;;;5.07;;
37425;SDS011;23285;50.180;7.036;2023-06-24T01:58:58;5.67;;;5.17;;
37425;SDS011;23285;50.180;7.036;2023-06-24T02:01:48;4.83;;;4.43;;
37425;SDS011;23285;50.180;7.036;2023-06-24T02:04:36;5.30;;;4.90;;
37425;SDS011;23285;50.180;7.036;2023-06-24T02:07:26;6.33;;;5.20;;
37425;SDS011;23285;50.180;7.036;2023-06-24T02:10:15;6.00;;;4.93;;
37425;SDS011;23285;50.180;7.036;2023-06-24T02:13:02;6.10;;;5.50;;
37425;SDS011;23285;50.180;7.036;2023-06-24T02:15:49;5.93;;;5.43;;
37425;SDS011;23285;50.180;7.036;2023-06-24T02:18:38;6.03;;;5.47;;
37425;SDS011;23285;50.180;7.036;2023-06-24T02:21:26;5.60;;;5.10;;
37425;SDS011;23285;50.180;7.036;2023-06-24T02:24:15;5.50;;;5.00;;
37425;SDS011;23285;50.180;7.036;2023-06-24T02:27:02;6.83;;;6.23;;
37425;SDS011;23285;50.180;7.036;2023-06-24T02:29:50;6.50;;;5.90;;
37425;SDS011;23285;50.180;7.036;2023-06-24T02:32:38;5.53;;;5.13;;
37425;SDS011;23285;50.180;7.036;2023-06-24T02:35:24;5.60;;;5.10;;
37425;SDS011;23285;50.180;7.036;2023-06-24T02:38:12;5.97;;;5.37;;
37425;SDS011;23285;50.180;7.036;2023-06-24T02:41:00;5.90;;;5.40;;
37425;SDS011;23285;50.180;7.036;2023-06-24T02:43:49;7.03;;;5.77;;
37425;SDS011;23285;50.180;7.036;2023-06-24T02:46:36;5.80;;;5.30;;
37425;SDS011;23285;50.180;7.036;2023-06-24T02:49:24;6.77;;;5.70;;
37425;SDS011;23285;50.180;7.036;2023-06-24T02:52:12;6.00;;;5.40;;
37425;SDS011;23285;50.180;7.036;2023-06-24T02:54:58;5.67;;;5.17;;
37425;SDS011;23285;50.180;7.036;2023-06-24T02:58:05;5.90;;;5.40;;
37425;SDS011;23285;50.180;7.036;2023-06-24T03:00:58;5.27;;;4.87;;
37425;SDS011;23285;50.180;7.036;2023-06-24T03:04:09;6.23;;;5.63;;
37425;SDS011;23285;50.180;7.036;2023-06-24T03:06:55;8.07;;;5.23;;
37425;SDS011;23285;50.180;7.036;2023-06-24T03:09:44;5.37;;;4.97;;
37425;SDS011;23285;50.180;7.036;2023-06-24T03:12:30;6.13;;;5.20;;
37425;SDS011;23285;50.180;7.036;2023-06-24T03:15:19;6.10;;;5.53;;
37425;SDS011;23285;50.180;7.036;2023-06-24T03:18:05;6.30;;;5.70;;
37425;SDS011;23285;50.180;7.036;2023-06-24T03:20:52;5.43;;;5.03;;
37425;SDS011;23285;50.180;7.036;2023-06-24T03:23:42;5.37;;;4.87;;
37425;SDS011;23285;50.180;7.036;2023-06-24T03:26:32;8.07;;;6.23;;
37425;SDS011;23285;50.180;7.036;2023-06-24T03:29:18;5.83;;;5.33;;
37425;SDS011;23285;50.180;7.036;2023-06-24T03:32:15;5.77;;;5.20;;
37425;SDS011;23285;50.180;7.036;2023-06-24T03:35:02;5.17;;;4.77;;
37425;SDS011;23285;50.180;7.036;2023-06-24T03:37:49;9.30;;;5.20;;
37425;SDS011;23285;50.180;7.036;2023-06-24T03:40:36;6.50;;;5.90;;
37425;SDS011;23285;50.180;7.036;2023-06-24T03:43:22;6.00;;;5.50;;
37425;SDS011;23285;50.180;7.036;2023-06-24T03:46:09;6.00;;;5.13;;
37425;SDS011;23285;50.180;7.036;2023-06-24T03:48:58;5.83;;;5.33;;
37425;SDS011;23285;50.180;7.036;2023-06-24T03:51:45;5.90;;;5.40;;
37425;SDS011;23285;50.180;7.036;2023-06-24T03:54:32;6.23;;;5.20;;
37425;SDS011;23285;50.180;7.036;2023-06-24T03:57:18;5.87;;;5.30;;
37425;SDS011;23285;50.180;7.036;2023-06-24T04:00:06;6.20;;;5.60;;
37425;SDS011;23285;50.180;7.036;2023-06-24T04:03:00;6.23;;;5.40;;
37425;SDS011;23285;50.180;7.036;2023-06-24T04:05:48;5.73;;;5.23;;
37425;SDS011;23285;50.180;7.036;2023-06-24T04:08:39;5.93;;;5.43;;
37425;SDS011;23285;50.180;7.036;2023-06-24T04:11:27;6.30;;;5.53;;
37425;SDS011;23285;50.180;7.036;2023-06-24T04:14:14;6.03;;;5.53;;
37425;SDS011;23285;50.180;7.036;2023-06-24T04:17:01;5.53;;;5.03;;
37425;SDS011;23285;50.180;7.036;2023-06-24T04:19:47;6.00;;;5.53;;
37425;SDS011;23285;50.180;7.036;2023-06-24T04:22:35;6.13;;;5.63;;
37425;SDS011;23285;50.180;7.036;2023-06-24T04:25:22;5.50;;;5.00;;
37425;SDS011;23285;50.180;7.036;2023-06-24T04:28:08;5.70;;;5.20;;
37425;SDS011;23285;50.180;7.036;2023-06-24T04:30:55;5.97;;;5.47;;
37425;SDS011;23285;50.180;7.036;2023-06-24T04:33:42;6.43;;;5.83;;
37425;SDS011;23285;50.180;7.036;2023-06-24T04:36:28;5.47;;;4.97;;
37425;SDS011;23285;50.180;7.036;2023-06-24T04:39:16;5.80;;;5.30;;
37425;SDS011;23285;50.180;7.036;2023-06-24T04:42:03;6.07;;;5.57;;
37425;SDS011;23285;50.180;7.036;2023-06-24T04:44:50;5.50;;;5.00;;
37425;SDS011;23285;50.180;7.036;2023-06-24T04:47:36;5.63;;;5.13;;
37425;SDS011;23285;50.180;7.036;2023-06-24T04:50:23;5.70;;;5.20;;
37425;SDS011;23285;50.180;7.036;2023-06-24T04:53:09;5.63;;;5.13;;
37425;SDS011;23285;50.180;7.036;2023-06-24T04:55:57;5.53;;;5.13;;
37425;SDS011;23285;50.180;7.036;2023-06-24T04:58:44;5.90;;;5.50;;
37425;SDS011;23285;50.180;7.036;2023-06-24T05:01:33;5.00;;;4.60;;
37425;SDS011;23285;50.180;7.036;2023-06-24T05:04:20;6.00;;;5.07;;
37425;SDS011;23285;50.180;7.036;2023-06-24T05:07:06;7.23;;;6.53;;
37425;SDS011;23285;50.180;7.036;2023-06-24T05:09:53;7.33;;;6.63;;
37425;SDS011;23285;50.180;7.036;2023-06-24T05:12:40;7.77;;;6.50;;
37425;SDS011;23285;50.180;7.036;2023-06-24T05:15:27;6.83;;;6.23;;
37425;SDS011;23285;50.180;7.036;2023-06-24T05:18:13;6.70;;;6.20;;
37425;SDS011;23285;50.180;7.036;2023-06-24T05:21:00;8.07;;;7.37;;
37425;SDS011;23285;50.180;7.036;2023-06-24T05:23:46;18.37;;;16.03;;
37425;SDS011;23285;50.180;7.036;2023-06-24T05:26:32;14.30;;;12.47;;
37425;SDS011;23285;50.180;7.036;2023-06-24T05:29:20;10.53;;;9.40;;
37425;SDS011;23285;50.180;7.036;2023-06-24T05:32:07;7.47;;;6.80;;
37425;SDS011;23285;50.180;7.036;2023-06-24T05:34:54;7.97;;;7.17;;
37425;SDS011;23285;50.180;7.036;2023-06-24T05:37:40;7.30;;;6.70;;
37425;SDS011;23285;50.180;7.036;2023-06-24T05:40:27;7.97;;;6.67;;
37425;SDS011;23285;50.180;7.036;2023-06-24T05:43:13;8.07;;;6.80;;
37425;SDS011;23285;50.180;7.036;2023-06-24T05:46:01;9.63;;;8.63;;
37425;SDS011;23285;50.180;7.036;2023-06-24T05:48:48;7.53;;;6.83;;
37425;SDS011;23285;50.180;7.036;2023-06-24T05:51:35;7.47;;;6.23;;
37425;SDS011;23285;50.180;7.036;2023-06-24T05:54:21;7.60;;;6.80;;
37425;SDS011;23285;50.180;7.036;2023-06-24T05:57:07;6.83;;;6.23;;
37425;SDS011;23285;50.180;7.036;2023-06-24T05:59:54;9.77;;;7.33;;
37425;SDS011;23285;50.180;7.036;2023-06-24T06:02:42;7.90;;;5.90;;
37425;SDS011;23285;50.180;7.036;2023-06-24T06:05:28;12.93;;;11.40;;
37425;SDS011;23285;50.180;7.036;2023-06-24T06:08:15;7.53;;;6.83;;
37425;SDS011;23285;50.180;7.036;2023-06-24T06:11:01;7.97;;;6.53;;
37425;SDS011;23285;50.180;7.036;2023-06-24T06:13:47;9.33;;;8.40;;
37425;SDS011;23285;50.180;7.036;2023-06-24T06:16:34;8.97;;;7.50;;
37425;SDS011;23285;50.180;7.036;2023-06-24T06:19:22;7.50;;;6.50;;
37425;SDS011;23285;50.180;7.036;2023-06-24T06:22:08;7.33;;;6.63;;
37425;SDS011;23285;50.180;7.036;2023-06-24T06:24:54;8.07;;;6.47;;
37425;SDS011;23285;50.180;7.036;2023-06-24T06:27:41;7.80;;;6.97;;
37425;SDS011;23285;50.180;7.036;2023-06-24T06:30:27;8.07;;;6.60;;
37425;SDS011;23285;50.180;7.036;2023-06-24T06:33:14;8.60;;;6.40;;
37425;SDS011;23285;50.180;7.036;2023-06-24T06:36:02;10.27;;;6.43;;
37425;SDS011;23285;50.180;7.036;2023-06-24T06:38:49;7.03;;;6.40;;
37425;SDS011;23285;50.180;7.036;2023-06-24T06:41:35;7.77;;;6.63;;
37425;SDS011;23285;50.180;7.036;2023-06-24T06:44:21;7.97;;;6.53;;
37425;SDS011;23285;50.180;7.036;2023-06-24T06:47:07;7.33;;;6.63;;
37425;SDS011;23285;50.180;7.036;2023-06-24T06:49:54;7.83;;;6.67;;
37425;SDS011;23285;50.180;7.036;2023-06-24T06:52:41;6.60;;;6.00;;
37425;SDS011;23285;50.180;7.036;2023-06-24T06:55:27;6.70;;;6.10;;
37425;SDS011;23285;50.180;7.036;2023-06-24T06:58:14;8.17;;;7.20;;
37425;SDS011;23285;50.180;7.036;2023-06-24T07:01:00;6.23;;;5.63;;
37425;SDS011;23285;50.180;7.036;2023-06-24T07:03:49;10.97;;;6.37;;
37425;SDS011;23285;50.180;7.036;2023-06-24T07:06:36;7.43;;;6.73;;
37425;SDS011;23285;50.180;7.036;2023-06-24T07:09:24;9.60;;;6.87;;
37425;SDS011;23285;50.180;7.036;2023-06-24T07:12:10;8.03;;;6.47;;
37425;SDS011;23285;50.180;7.036;2023-06-24T07:14:57;6.90;;;5.90;;
37425;SDS011;23285;50.180;7.036;2023-06-24T07:17:44;9.03;;;6.60;;
37425;SDS011;23285;50.180;7.036;2023-06-24T07:20:30;10.27;;;7.43;;
37425;SDS011;23285;50.180;7.036;2023-06-24T07:23:16;7.63;;;6.83;;
37425;SDS011;23285;50.180;7.036;2023-06-24T07:26:04;7.97;;;7.10;;
37425;SDS011;23285;50.180;7.036;2023-06-24T07:28:50;8.43;;;7.73;;
37425;SDS011;23285;50.180;7.036;2023-06-24T07:31:38;8.03;;;7.27;;
37425;SDS011;23285;50.180;7.036;2023-06-24T07:34:24;8.07;;;6.80;;
37425;SDS011;23285;50.180;7.036;2023-06-24T07:37:11;10.43;;;9.23;;
37425;SDS011;23285;50.180;7.036;2023-06-24T07:39:57;9.17;;;8.07;;
37425;SDS011;23285;50.180;7.036;2023-06-24T07:42:45;7.40;;;6.70;;
37425;SDS011;23285;50.180;7.036;2023-06-24T07:45:31;8.10;;;7.30;;
37425;SDS011;23285;50.180;7.036;2023-06-24T07:48:17;9.53;;;7.57;;
37425;SDS011;23285;50.180;7.036;2023-06-24T07:51:04;8.87;;;6.80;;
37425;SDS011;23285;50.180;7.036;2023-06-24T07:53:50;8.90;;;7.00;;
37425;SDS011;23285;50.180;7.036;2023-06-24T07:56:36;10.87;;;7.63;;
37425;SDS011;23285;50.180;7.036;2023-06-24T07:59:24;7.70;;;6.90;;
37425;SDS011;23285;50.180;7.036;2023-06-24T08:02:11;10.30;;;6.80;;
37425;SDS011;23285;50.180;7.036;2023-06-24T08:04:57;7.20;;;6.37;;
37425;SDS011;23285;50.180;7.036;2023-06-24T08:07:43;8.60;;;5.90;;
37425;SDS011;23285;50.180;7.036;2023-06-24T08:10:30;10.30;;;6.33;;
37425;SDS011;23285;50.180;7.036;2023-06-24T08:13:16;7.70;;;5.70;;
37425;SDS011;23285;50.180;7.036;2023-06-24T08:16:04;6.57;;;5.97;;
37425;SDS011;23285;50.180;7.036;2023-06-24T08:18:50;7.97;;;5.37;;
37425;SDS011;23285;50.180;7.036;2023-06-24T08:21:37;10.60;;;5.13;;
37425;SDS011;23285;50.180;7.036;2023-06-24T08:24:25;8.93;;;5.67;;
37425;SDS011;23285;50.180;7.036;2023-06-24T08:27:12;6.40;;;5.10;;
37425;SDS011;23285;50.180;7.036;2023-06-24T08:29:59;8.20;;;5.77;;
37425;SDS011;23285;50.180;7.036;2023-06-24T08:32:46;6.07;;;5.47;;
37425;SDS011;23285;50.180;7.036;2023-06-24T08:35:33;6.73;;;6.13;;
37425;SDS011;23285;50.180;7.036;2023-06-24T08:38:19;6.27;;;5.30;;
37425;SDS011;23285;50.180;7.036;2023-06-24T08:41:05;5.73;;;4.87;;
37425;SDS011;23285;50.180;7.036;2023-06-24T08:43:52;10.97;;;6.10;;
37425;SDS011;23285;50.180;7.036;2023-06-24T08:46:39;10.33;;;5.30;;
37425;SDS011;23285;50.180;7.036;2023-06-24T08:49:28;5.93;;;5.27;;
37425;SDS011;23285;50.180;7.036;2023-06-24T08:52:16;5.67;;;5.13;;
37425;SDS011;23285;50.180;7.036;2023-06-24T08:55:03;9.60;;;7.90;;
37425;SDS011;23285;50.180;7.036;2023-06-24T08:57:51;5.90;;;5.40;;
37425;SDS011;23285;50.180;7.036;2023-06-24T09:00:38;6.70;;;4.57;;
37425;SDS011;23285;50.180;7.036;2023-06-24T09:03:26;12.30;;;5.47;;
37425;SDS011;23285;50.180;7.036;2023-06-24T09:06:13;5.90;;;5.00;;
37425;SDS011;23285;50.180;7.036;2023-06-24T09:09:00;6.93;;;5.00;;
37425;SDS011;23285;50.180;7.036;2023-06-24T09:11:53;5.70;;;4.03;;
37425;SDS011;23285;50.180;7.036;2023-06-24T09:14:40;5.47;;;4.53;;
37425;SDS011;23285;50.180;7.036;2023-06-24T09:17:27;6.30;;;4.57;;
37425;SDS011;23285;50.180;7.036;2023-06-24T09:20:13;6.40;;;4.30;;
37425;SDS011;23285;50.180;7.036;2023-06-24T09:23:05;4.67;;;4.10;;
37425;SDS011;23285;50.180;7.036;2023-06-24T09:25:55;4.50;;;4.00;;
37425;SDS011;23285;50.180;7.036;2023-06-24T09:28:46;7.53;;;5.27;;
37425;SDS011;23285;50.180;7.036;2023-06-24T09:31:33;9.33;;;4.20;;
37425;SDS011;23285;50.180;7.036;2023-06-24T09:34:19;7.10;;;4.83;;
37425;SDS011;23285;50.180;7.036;2023-06-24T09:37:05;7.83;;;4.47;;
37425;SDS011;23285;50.180;7.036;2023-06-24T09:39:54;6.90;;;6.20;;
37425;SDS011;23285;50.180;7.036;2023-06-24T09:42:46;4.50;;;4.10;;
37425;SDS011;23285;50.180;7.036;2023-06-24T09:45:36;4.97;;;4.00;;
37425;SDS011;23285;50.180;7.036;2023-06-24T09:48:22;6.97;;;4.00;;
37425;SDS011;23285;50.180;7.036;2023-06-24T09:51:08;6.37;;;4.77;;
37425;SDS011;23285;50.180;7.036;2023-06-24T09:53:57;4.78;;;4.10;;
37425;SDS011;23285;50.180;7.036;2023-06-24T09:56:45;5.07;;;4.40;;
37425;SDS011;23285;50.180;7.036;2023-06-24T09:59:35;5.77;;;3.47;;
37425;SDS011;23285;50.180;7.036;2023-06-24T10:02:22;6.90;;;3.90;;
37425;SDS011;23285;50.180;7.036;2023-06-24T10:05:09;12.53;;;5.30;;
37425;SDS011;23285;50.180;7.036;2023-06-24T10:07:56;4.63;;;4.13;;
37425;SDS011;23285;50.180;7.036;2023-06-24T10:10:42;6.50;;;3.80;;
37425;SDS011;23285;50.180;7.036;2023-06-24T10:13:30;6.33;;;3.77;;
37425;SDS011;23285;50.180;7.036;2023-06-24T10:16:17;4.00;;;3.53;;
37425;SDS011;23285;50.180;7.036;2023-06-24T10:19:04;5.53;;;3.87;;
37425;SDS011;23285;50.180;7.036;2023-06-24T10:21:52;4.23;;;3.80;;
37425;SDS011;23285;50.180;7.036;2023-06-24T10:24:39;4.60;;;3.70;;
37425;SDS011;23285;50.180;7.036;2023-06-24T10:27:28;5.50;;;4.10;;
37425;SDS011;23285;50.180;7.036;2023-06-24T10:30:19;4.10;;;3.70;;
37425;SDS011;23285;50.180;7.036;2023-06-24T10:33:09;5.53;;;3.97;;
37425;SDS011;23285;50.180;7.036;2023-06-24T10:35:57;4.00;;;3.67;;
37425;SDS011;23285;50.180;7.036;2023-06-24T10:38:54;4.90;;;3.73;;
37425;SDS011;23285;50.180;7.036;2023-06-24T10:41:40;6.27;;;3.80;;
37425;SDS011;23285;50.180;7.036;2023-06-24T10:44:27;7.10;;;4.07;;
37425;SDS011;23285;50.180;7.036;2023-06-24T10:47:15;4.40;;;3.93;;
37425;SDS011;23285;50.180;7.036;2023-06-24T10:50:02;3.77;;;3.40;;
37425;SDS011;23285;50.180;7.036;2023-06-24T10:52:49;8.70;;;4.47;;
37425;SDS011;23285;50.180;7.036;2023-06-24T10:55:39;4.23;;;3.83;;
37425;SDS011;23285;50.180;7.036;2023-06-24T10:58:25;3.83;;;3.53;;
37425;SDS011;23285;50.180;7.036;2023-06-24T11:01:12;4.40;;;3.93;;
37425;SDS011;23285;50.180;7.036;2023-06-24T11:04:06;3.87;;;3.10;;
37425;SDS011;23285;50.180;7.036;2023-06-24T11:06:56;3.50;;;3.20;;
37425;SDS011;23285;50.180;7.036;2023-06-24T11:09:47;7.33;;;3.90;;
37425;SDS011;23285;50.180;7.036;2023-06-24T11:12:35;3.67;;;3.07;;
37425;SDS011;23285;50.180;7.036;2023-06-24T11:15:22;6.30;;;3.27;;
37425;SDS011;23285;50.180;7.036;2023-06-24T11:18:10;10.68;;;5.85;;
37425;SDS011;23285;50.180;7.036;2023-06-24T11:20:58;3.90;;;3.60;;
37425;SDS011;23285;50.180;7.036;2023-06-24T11:23:44;3.67;;;3.38;;
37425;SDS011;23285;50.180;7.036;2023-06-24T11:26:31;6.73;;;3.90;;
37425;SDS011;23285;50.180;7.036;2023-06-24T11:29:17;3.90;;;3.53;;
37425;SDS011;23285;50.180;7.036;2023-06-24T11:32:06;4.17;;;3.20;;
37425;SDS011;23285;50.180;7.036;2023-06-24T11:34:54;4.27;;;3.87;;
37425;SDS011;23285;50.180;7.036;2023-06-24T11:37:42;3.50;;;3.20;;
37425;SDS011;23285;50.180;7.036;2023-06-24T11:40:30;3.57;;;3.17;;
37425;SDS011;23285;50.180;7.036;2023-06-24T11:43:17;4.60;;;3.10;;
37425;SDS011;23285;50.180;7.036;2023-06-24T11:46:04;5.47;;;3.23;;
37425;SDS011;23285;50.180;7.036;2023-06-24T11:48:50;3.87;;;3.37;;
37425;SDS011;23285;50.180;7.036;2023-06-24T11:51:37;4.13;;;3.20;;
37425;SDS011;23285;50.180;7.036;2023-06-24T11:54:40;3.93;;;3.30;;
37425;SDS011;23285;50.180;7.036;2023-06-24T12:00:35;4.18;;;3.53;;
37425;SDS011;23285;50.180;7.036;2023-06-24T12:03:23;4.97;;;3.00;;
37425;SDS011;23285;50.180;7.036;2023-06-24T12:06:10;14.00;;;4.47;;
37425;SDS011;23285;50.180;7.036;2023-06-24T12:08:56;8.37;;;3.40;;
37425;SDS011;23285;50.180;7.036;2023-06-24T12:11:44;4.00;;;3.07;;
37425;SDS011;23285;50.180;7.036;2023-06-24T12:14:31;6.27;;;2.93;;
37425;SDS011;23285;50.180;7.036;2023-06-24T12:17:18;3.87;;;3.03;;
37425;SDS011;23285;50.180;7.036;2023-06-24T12:20:04;4.07;;;2.57;;
37425;SDS011;23285;50.180;7.036;2023-06-24T12:22:52;4.03;;;3.17;;
37425;SDS011;23285;50.180;7.036;2023-06-24T12:25:39;3.93;;;3.10;;
37425;SDS011;23285;50.180;7.036;2023-06-24T12:28:28;4.57;;;2.90;;
37425;SDS011;23285;50.180;7.036;2023-06-24T12:31:14;4.17;;;3.77;;
37425;SDS011;23285;50.180;7.036;2023-06-24T12:34:01;5.10;;;3.43;;
37425;SDS011;23285;50.180;7.036;2023-06-24T12:36:48;6.27;;;3.13;;
37425;SDS011;23285;50.180;7.036;2023-06-24T12:39:34;3.00;;;2.80;;
37425;SDS011;23285;50.180;7.036;2023-06-24T12:42:20;7.47;;;3.53;;
37425;SDS011;23285;50.180;7.036;2023-06-24T12:45:08;3.07;;;2.80;;
37425;SDS011;23285;50.180;7.036;2023-06-24T12:47:55;3.53;;;3.13;;
37425;SDS011;23285;50.180;7.036;2023-06-24T12:50:43;3.33;;;3.03;;
37425;SDS011;23285;50.180;7.036;2023-06-24T12:53:30;4.03;;;3.20;;
37425;SDS011;23285;50.180;7.036;2023-06-24T12:56:16;3.23;;;2.90;;
37425;SDS011;23285;50.180;7.036;2023-06-24T12:59:02;3.00;;;2.77;;
37425;SDS011;23285;50.180;7.036;2023-06-24T13:01:51;6.10;;;3.30;;
37425;SDS011;23285;50.180;7.036;2023-06-24T13:04:38;5.20;;;3.37;;
37425;SDS011;23285;50.180;7.036;2023-06-24T13:07:24;3.00;;;2.70;;
37425;SDS011;23285;50.180;7.036;2023-06-24T13:10:11;4.50;;;2.90;;
37425;SDS011;23285;50.180;7.036;2023-06-24T13:13:00;3.57;;;3.03;;
37425;SDS011;23285;50.180;7.036;2023-06-24T13:16:10;3.23;;;2.93;;
37425;SDS011;23285;50.180;7.036;2023-06-24T13:18:58;3.33;;;3.03;;
37425;SDS011;23285;50.180;7.036;2023-06-24T13:21:44;4.87;;;2.90;;
37425;SDS011;23285;50.180;7.036;2023-06-24T13:24:30;3.37;;;3.07;;
37425;SDS011;23285;50.180;7.036;2023-06-24T13:27:17;3.10;;;2.87;;
37425;SDS011;23285;50.180;7.036;2023-06-24T13:30:03;4.30;;;2.97;;
37425;SDS011;23285;50.180;7.036;2023-06-24T13:32:50;5.43;;;3.27;;
37425;SDS011;23285;50.180;7.036;2023-06-24T13:35:38;3.40;;;3.10;;
37425;SDS011;23285;50.180;7.036;2023-06-24T13:38:25;3.73;;;3.23;;
37425;SDS011;23285;50.180;7.036;2023-06-24T13:41:11;3.47;;;3.17;;
37425;SDS011;23285;50.180;7.036;2023-06-24T13:43:58;3.30;;;3.00;;
37425;SDS011;23285;50.180;7.036;2023-06-24T13:46:45;3.50;;;3.20;;
37425;SDS011;23285;50.180;7.036;2023-06-24T13:49:31;3.60;;;3.20;;
37425;SDS011;23285;50.180;7.036;2023-06-24T13:52:19;5.57;;;3.10;;
37425;SDS011;23285;50.180;7.036;2023-06-24T13:55:06;3.07;;;2.60;;
37425;SDS011;23285;50.180;7.036;2023-06-24T13:57:53;3.60;;;3.30;;
37425;SDS011;23285;50.180;7.036;2023-06-24T14:00:39;3.67;;;3.20;;
37425;SDS011;23285;50.180;7.036;2023-06-24T14:03:25;3.03;;;2.73;;
37425;SDS011;23285;50.180;7.036;2023-06-24T14:06:13;5.97;;;3.30;;
37425;SDS011;23285;50.180;7.036;2023-06-24T14:09:02;3.67;;;3.07;;
37425;SDS011;23285;50.180;7.036;2023-06-24T14:11:48;3.60;;;2.90;;
37425;SDS011;23285;50.180;7.036;2023-06-24T14:14:36;3.43;;;3.13;;
37425;SDS011;23285;50.180;7.036;2023-06-24T14:17:23;3.73;;;3.37;;
37425;SDS011;23285;50.180;7.036;2023-06-24T14:20:11;5.60;;;3.30;;
37425;SDS011;23285;50.180;7.036;2023-06-24T14:22:58;3.57;;;3.27;;
37425;SDS011;23285;50.180;7.036;2023-06-24T14:25:46;4.20;;;3.50;;
37425;SDS011;23285;50.180;7.036;2023-06-24T14:28:32;3.43;;;3.13;;
37425;SDS011;23285;50.180;7.036;2023-06-24T14:31:18;3.60;;;3.30;;
37425;SDS011;23285;50.180;7.036;2023-06-24T14:34:05;3.87;;;3.40;;
37425;SDS011;23285;50.180;7.036;2023-06-24T14:36:51;3.83;;;3.33;;
37425;SDS011;23285;50.180;7.036;2023-06-24T14:39:38;3.00;;;2.80;;
37425;SDS011;23285;50.180;7.036;2023-06-24T14:42:27;3.60;;;3.23;;
37425;SDS011;23285;50.180;7.036;2023-06-24T14:45:13;3.50;;;3.20;;
37425;SDS011;23285;50.180;7.036;2023-06-24T14:48:00;3.83;;;3.40;;
37425;SDS011;23285;50.180;7.036;2023-06-24T14:50:46;3.60;;;3.30;;
37425;SDS011;23285;50.180;7.036;2023-06-24T14:53:32;5.33;;;3.77;;
37425;SDS011;23285;50.180;7.036;2023-06-24T14:56:18;3.43;;;3.13;;
37425;SDS011;23285;50.180;7.036;2023-06-24T14:59:06;13.13;;;3.83;;
37425;SDS011;23285;50.180;7.036;2023-06-24T15:01:52;3.27;;;2.97;;
37425;SDS011;23285;50.180;7.036;2023-06-24T15:04:39;5.30;;;3.30;;
37425;SDS011;23285;50.180;7.036;2023-06-24T15:07:25;3.30;;;3.00;;
37425;SDS011;23285;50.180;7.036;2023-06-24T15:10:12;3.90;;;3.50;;
37425;SDS011;23285;50.180;7.036;2023-06-24T15:12:58;4.80;;;3.23;;
37425;SDS011;23285;50.180;7.036;2023-06-24T15:15:46;3.33;;;3.03;;
37425;SDS011;23285;50.180;7.036;2023-06-24T15:18:34;3.10;;;2.90;;
37425;SDS011;23285;50.180;7.036;2023-06-24T15:21:20;3.50;;;3.20;;
37425;SDS011;23285;50.180;7.036;2023-06-24T15:24:07;3.53;;;3.20;;
37425;SDS011;23285;50.180;7.036;2023-06-24T15:26:53;5.63;;;3.23;;
37425;SDS011;23285;50.180;7.036;2023-06-24T15:29:41;3.17;;;2.93;;
37425;SDS011;23285;50.180;7.036;2023-06-24T15:32:30;7.00;;;3.37;;
37425;SDS011;23285;50.180;7.036;2023-06-24T15:35:16;3.57;;;3.27;;
37425;SDS011;23285;50.180;7.036;2023-06-24T15:38:02;4.70;;;3.00;;
37425;SDS011;23285;50.180;7.036;2023-06-24T15:40:49;3.30;;;3.07;;
37425;SDS011;23285;50.180;7.036;2023-06-24T15:43:35;4.00;;;3.60;;
37425;SDS011;23285;50.180;7.036;2023-06-24T15:46:21;3.70;;;3.40;;
37425;SDS011;23285;50.180;7.036;2023-06-24T15:49:09;3.77;;;3.03;;
37425;SDS011;23285;50.180;7.036;2023-06-24T15:51:56;3.63;;;3.10;;
37425;SDS011;23285;50.180;7.036;2023-06-24T15:54:42;3.40;;;3.10;;
37425;SDS011;23285;50.180;7.036;2023-06-24T15:57:28;6.80;;;3.37;;
37425;SDS011;23285;50.180;7.036;2023-06-24T16:00:14;5.77;;;3.40;;
37425;SDS011;23285;50.180;7.036;2023-06-24T16:03:00;3.60;;;3.30;;
37425;SDS011;23285;50.180;7.036;2023-06-24T16:05:48;3.73;;;3.03;;
37425;SDS011;23285;50.180;7.036;2023-06-24T16:08:34;3.73;;;3.43;;
37425;SDS011;23285;50.180;7.036;2023-06-24T16:11:21;3.53;;;3.20;;
37425;SDS011;23285;50.180;7.036;2023-06-24T16:14:07;4.23;;;3.37;;
37425;SDS011;23285;50.180;7.036;2023-06-24T16:16:53;3.40;;;3.10;;
37425;SDS011;23285;50.180;7.036;2023-06-24T16:19:39;3.97;;;3.13;;
37425;SDS011;23285;50.180;7.036;2023-06-24T16:22:27;3.40;;;3.10;;
37425;SDS011;23285;50.180;7.036;2023-06-24T16:25:13;4.27;;;3.57;;
37425;SDS011;23285;50.180;7.036;2023-06-24T16:27:59;3.93;;;3.50;;
37425;SDS011;23285;50.180;7.036;2023-06-24T16:30:45;6.93;;;3.50;;
37425;SDS011;23285;50.180;7.036;2023-06-24T16:33:32;3.60;;;3.30;;
37425;SDS011;23285;50.180;7.036;2023-06-24T16:36:20;3.60;;;3.30;;
37425;SDS011;23285;50.180;7.036;2023-06-24T16:39:08;3.80;;;3.10;;
37425;SDS011;23285;50.180;7.036;2023-06-24T16:41:54;10.60;;;3.40;;
37425;SDS011;23285;50.180;7.036;2023-06-24T16:44:40;2.97;;;2.77;;
37425;SDS011;23285;50.180;7.036;2023-06-24T16:47:30;3.40;;;3.10;;
37425;SDS011;23285;50.180;7.036;2023-06-24T16:50:17;3.43;;;3.23;;
37425;SDS011;23285;50.180;7.036;2023-06-24T16:53:03;3.77;;;3.13;;
37425;SDS011;23285;50.180;7.036;2023-06-24T16:55:51;3.27;;;2.97;;